This is the latest recevied weather packets stored in our database for station/object YO8SHU-10. If no packets are shown the sender has not sent any weather packets the latest 10 day(s).
| Time | Temp. | Humidity | Pressure | Rain* | Wind** | Luminosity | Snow |
|---|---|---|---|---|---|---|---|
| 1777615199 | 8.89° C | 63% | 1031.5 hPa | - | - | - | - |
| 1777613399 | 7.22° C | 69% | 1031.5 hPa | - | - | - | - |
| 1777611598 | 5.56° C | 79% | 1031.4 hPa | - | - | - | - |
| 1777609798 | 4.44° C | 89% | 1031.4 hPa | - | - | - | - |
| 1777607997 | 3.33° C | 94% | 1031.4 hPa | - | - | - | - |
| 1777606196 | 3.33° C | 95% | 1031.5 hPa | - | - | - | - |
| 1777604396 | 2.78° C | 96% | 1031.5 hPa | - | - | - | - |
| 1777602595 | 2.78° C | 98% | 1031.4 hPa | - | - | - | - |
| 1777600795 | 2.78° C | 95% | 1031.5 hPa | - | - | - | - |
| 1777598995 | 2.78° C | 94% | 1031.6 hPa | - | - | - | - |
| 1777597194 | 2.78° C | 91% | 1031.8 hPa | - | - | - | - |
| 1777595394 | 3.33° C | 86% | 1031.7 hPa | - | - | - | - |
| 1777593593 | 3.33° C | 83% | 1031.7 hPa | - | - | - | - |
| 1777591793 | 3.89° C | 82% | 1031.9 hPa | - | - | - | - |
| 1777589993 | 3.89° C | 74% | 1032 hPa | - | - | - | - |
| 1777588193 | 3.89° C | 66% | 1032 hPa | - | - | - | - |
| 1777586392 | 3.89° C | 64% | 1032 hPa | - | - | - | - |
| 1777584592 | 5° C | 57% | 1031.8 hPa | - | - | - | - |
| 1777582791 | 5° C | 56% | 1031.7 hPa | - | - | - | - |
| 1777580991 | 5° C | 55% | 1031.6 hPa | - | - | - | - |
| 1777579190 | 5.56° C | 53% | 1031.4 hPa | - | - | - | - |
| 1777577390 | 6.67° C | 50% | 1031.4 hPa | - | - | - | - |
| 1777575590 | 6.11° C | 51% | 1031.2 hPa | - | - | - | - |
| 1777573790 | 7.22° C | 48% | 1031 hPa | - | - | - | - |
| 1777571988 | 7.22° C | 49% | 1030.8 hPa | - | - | - | - |
* Rain since midnight (hover to see other rain measurements)
** Current wind speed in m/s (hover to see current wind gust speed)